sensor_id;sensor_type;location;lat;lon;timestamp;P1;durP1;ratioP1;P2;durP2;ratioP2
13335;SDS011;6737;51.480;11.962;2022-07-11T00:02:03;2.47;;;1.30;;
13335;SDS011;6737;51.480;11.962;2022-07-11T00:04:31;3.45;;;1.25;;
13335;SDS011;6737;51.480;11.962;2022-07-11T00:06:58;3.00;;;1.27;;
13335;SDS011;6737;51.480;11.962;2022-07-11T00:09:24;3.00;;;1.30;;
13335;SDS011;6737;51.480;11.962;2022-07-11T00:11:50;3.42;;;1.40;;
13335;SDS011;6737;51.480;11.962;2022-07-11T00:14:16;3.40;;;1.40;;
13335;SDS011;6737;51.480;11.962;2022-07-11T00:16:43;3.78;;;1.30;;
13335;SDS011;6737;51.480;11.962;2022-07-11T00:19:09;2.80;;;1.30;;
13335;SDS011;6737;51.480;11.962;2022-07-11T00:21:35;2.70;;;1.38;;
13335;SDS011;6737;51.480;11.962;2022-07-11T00:24:04;3.35;;;1.40;;
13335;SDS011;6737;51.480;11.962;2022-07-11T00:26:31;4.18;;;1.60;;
13335;SDS011;6737;51.480;11.962;2022-07-11T00:28:57;4.50;;;1.40;;
13335;SDS011;6737;51.480;11.962;2022-07-11T00:31:23;4.57;;;1.60;;
13335;SDS011;6737;51.480;11.962;2022-07-11T00:33:49;3.70;;;1.45;;
13335;SDS011;6737;51.480;11.962;2022-07-11T00:36:14;3.43;;;1.30;;
13335;SDS011;6737;51.480;11.962;2022-07-11T00:38:40;3.30;;;1.40;;
13335;SDS011;6737;51.480;11.962;2022-07-11T00:41:06;3.10;;;1.20;;
13335;SDS011;6737;51.480;11.962;2022-07-11T00:43:35;6.57;;;1.10;;
13335;SDS011;6737;51.480;11.962;2022-07-11T00:46:03;1.40;;;1.10;;
13335;SDS011;6737;51.480;11.962;2022-07-11T00:48:30;3.80;;;1.20;;
13335;SDS011;6737;51.480;11.962;2022-07-11T00:50:57;3.23;;;1.23;;
13335;SDS011;6737;51.480;11.962;2022-07-11T00:53:26;2.27;;;1.00;;
13335;SDS011;6737;51.480;11.962;2022-07-11T00:55:53;3.57;;;1.10;;
13335;SDS011;6737;51.480;11.962;2022-07-11T00:58:20;2.27;;;1.10;;
13335;SDS011;6737;51.480;11.962;2022-07-11T01:00:47;5.17;;;1.40;;
13335;SDS011;6737;51.480;11.962;2022-07-11T01:03:13;2.40;;;1.10;;
13335;SDS011;6737;51.480;11.962;2022-07-11T01:05:40;3.40;;;1.10;;
13335;SDS011;6737;51.480;11.962;2022-07-11T01:08:06;3.63;;;1.10;;
13335;SDS011;6737;51.480;11.962;2022-07-11T01:10:32;2.60;;;1.10;;
13335;SDS011;6737;51.480;11.962;2022-07-11T01:12:59;3.03;;;1.13;;
13335;SDS011;6737;51.480;11.962;2022-07-11T01:15:25;2.90;;;1.20;;
13335;SDS011;6737;51.480;11.962;2022-07-11T01:17:50;4.33;;;1.00;;
13335;SDS011;6737;51.480;11.962;2022-07-11T01:20:20;3.10;;;1.10;;
13335;SDS011;6737;51.480;11.962;2022-07-11T01:22:51;2.43;;;1.20;;
13335;SDS011;6737;51.480;11.962;2022-07-11T01:25:18;2.13;;;1.10;;
13335;SDS011;6737;51.480;11.962;2022-07-11T01:27:57;3.50;;;1.00;;
13335;SDS011;6737;51.480;11.962;2022-07-11T01:30:24;1.87;;;0.93;;
13335;SDS011;6737;51.480;11.962;2022-07-11T01:32:51;7.90;;;1.00;;
13335;SDS011;6737;51.480;11.962;2022-07-11T01:35:18;3.87;;;1.10;;
13335;SDS011;6737;51.480;11.962;2022-07-11T01:37:45;2.80;;;1.10;;
13335;SDS011;6737;51.480;11.962;2022-07-11T01:40:11;2.93;;;1.40;;
13335;SDS011;6737;51.480;11.962;2022-07-11T01:42:38;2.70;;;1.10;;
13335;SDS011;6737;51.480;11.962;2022-07-11T01:45:04;4.03;;;1.20;;
13335;SDS011;6737;51.480;11.962;2022-07-11T01:47:30;2.70;;;1.03;;
13335;SDS011;6737;51.480;11.962;2022-07-11T01:49:56;3.67;;;1.13;;
13335;SDS011;6737;51.480;11.962;2022-07-11T01:52:22;4.53;;;1.30;;
13335;SDS011;6737;51.480;11.962;2022-07-11T01:54:47;1.93;;;1.13;;
13335;SDS011;6737;51.480;11.962;2022-07-11T01:57:14;2.60;;;1.20;;
13335;SDS011;6737;51.480;11.962;2022-07-11T01:59:40;2.90;;;1.37;;
13335;SDS011;6737;51.480;11.962;2022-07-11T02:02:06;4.67;;;1.40;;
13335;SDS011;6737;51.480;11.962;2022-07-11T02:04:32;3.43;;;1.20;;
13335;SDS011;6737;51.480;11.962;2022-07-11T02:06:58;1.87;;;1.20;;
13335;SDS011;6737;51.480;11.962;2022-07-11T02:09:24;2.47;;;1.17;;
13335;SDS011;6737;51.480;11.962;2022-07-11T02:11:50;3.47;;;1.40;;
13335;SDS011;6737;51.480;11.962;2022-07-11T02:14:16;2.73;;;1.10;;
13335;SDS011;6737;51.480;11.962;2022-07-11T02:16:41;2.93;;;1.03;;
13335;SDS011;6737;51.480;11.962;2022-07-11T02:19:07;2.43;;;1.30;;
13335;SDS011;6737;51.480;11.962;2022-07-11T02:21:36;1.60;;;1.00;;
13335;SDS011;6737;51.480;11.962;2022-07-11T02:24:02;4.30;;;1.20;;
13335;SDS011;6737;51.480;11.962;2022-07-11T02:26:28;5.70;;;1.43;;
13335;SDS011;6737;51.480;11.962;2022-07-11T02:28:54;6.87;;;1.57;;
13335;SDS011;6737;51.480;11.962;2022-07-11T02:31:20;3.87;;;1.40;;
13335;SDS011;6737;51.480;11.962;2022-07-11T02:33:46;3.70;;;1.23;;
13335;SDS011;6737;51.480;11.962;2022-07-11T02:36:12;2.50;;;1.17;;
13335;SDS011;6737;51.480;11.962;2022-07-11T02:38:38;3.60;;;1.20;;
13335;SDS011;6737;51.480;11.962;2022-07-11T02:41:04;3.67;;;1.10;;
13335;SDS011;6737;51.480;11.962;2022-07-11T02:43:30;3.13;;;1.13;;
13335;SDS011;6737;51.480;11.962;2022-07-11T02:45:56;4.60;;;1.10;;
13335;SDS011;6737;51.480;11.962;2022-07-11T02:48:22;5.47;;;1.20;;
13335;SDS011;6737;51.480;11.962;2022-07-11T02:50:48;2.03;;;1.13;;
13335;SDS011;6737;51.480;11.962;2022-07-11T02:53:14;2.57;;;1.10;;
13335;SDS011;6737;51.480;11.962;2022-07-11T02:55:40;3.70;;;1.10;;
13335;SDS011;6737;51.480;11.962;2022-07-11T02:58:06;4.23;;;1.20;;
13335;SDS011;6737;51.480;11.962;2022-07-11T03:00:32;4.43;;;1.13;;
13335;SDS011;6737;51.480;11.962;2022-07-11T03:02:57;2.73;;;1.07;;
13335;SDS011;6737;51.480;11.962;2022-07-11T03:05:23;4.00;;;1.40;;
13335;SDS011;6737;51.480;11.962;2022-07-11T03:07:49;4.90;;;1.13;;
13335;SDS011;6737;51.480;11.962;2022-07-11T03:10:15;2.97;;;1.20;;
13335;SDS011;6737;51.480;11.962;2022-07-11T03:12:41;3.13;;;1.10;;
13335;SDS011;6737;51.480;11.962;2022-07-11T03:15:07;4.20;;;1.10;;
13335;SDS011;6737;51.480;11.962;2022-07-11T03:17:36;2.87;;;1.60;;
13335;SDS011;6737;51.480;11.962;2022-07-11T03:20:03;4.30;;;1.67;;
13335;SDS011;6737;51.480;11.962;2022-07-11T03:22:31;2.63;;;1.07;;
13335;SDS011;6737;51.480;11.962;2022-07-11T03:24:56;5.00;;;1.20;;
13335;SDS011;6737;51.480;11.962;2022-07-11T03:27:23;2.43;;;1.10;;
13335;SDS011;6737;51.480;11.962;2022-07-11T03:29:50;4.53;;;1.20;;
13335;SDS011;6737;51.480;11.962;2022-07-11T03:32:15;2.27;;;1.13;;
13335;SDS011;6737;51.480;11.962;2022-07-11T03:34:45;4.63;;;1.30;;
13335;SDS011;6737;51.480;11.962;2022-07-11T03:37:30;3.80;;;1.20;;
13335;SDS011;6737;51.480;11.962;2022-07-11T03:39:57;2.07;;;1.00;;
13335;SDS011;6737;51.480;11.962;2022-07-11T03:42:23;2.63;;;1.10;;
13335;SDS011;6737;51.480;11.962;2022-07-11T03:44:50;4.73;;;1.37;;
13335;SDS011;6737;51.480;11.962;2022-07-11T03:47:16;3.13;;;1.10;;
13335;SDS011;6737;51.480;11.962;2022-07-11T03:49:43;2.43;;;1.30;;
13335;SDS011;6737;51.480;11.962;2022-07-11T03:52:09;3.47;;;1.30;;
13335;SDS011;6737;51.480;11.962;2022-07-11T03:54:35;2.43;;;1.07;;
13335;SDS011;6737;51.480;11.962;2022-07-11T03:57:01;4.37;;;1.30;;
13335;SDS011;6737;51.480;11.962;2022-07-11T03:59:27;2.77;;;1.30;;
13335;SDS011;6737;51.480;11.962;2022-07-11T04:01:53;4.00;;;1.47;;
13335;SDS011;6737;51.480;11.962;2022-07-11T04:04:19;3.40;;;1.10;;
13335;SDS011;6737;51.480;11.962;2022-07-11T04:06:45;3.33;;;1.37;;
13335;SDS011;6737;51.480;11.962;2022-07-11T04:09:11;2.63;;;1.43;;
13335;SDS011;6737;51.480;11.962;2022-07-11T04:11:36;3.73;;;1.57;;
13335;SDS011;6737;51.480;11.962;2022-07-11T04:14:02;5.80;;;1.30;;
13335;SDS011;6737;51.480;11.962;2022-07-11T04:16:28;2.80;;;1.17;;
13335;SDS011;6737;51.480;11.962;2022-07-11T04:18:54;3.77;;;1.50;;
13335;SDS011;6737;51.480;11.962;2022-07-11T04:21:20;3.00;;;1.27;;
13335;SDS011;6737;51.480;11.962;2022-07-11T04:23:46;4.97;;;1.30;;
13335;SDS011;6737;51.480;11.962;2022-07-11T04:26:12;4.63;;;1.40;;
13335;SDS011;6737;51.480;11.962;2022-07-11T04:28:38;3.00;;;1.20;;
13335;SDS011;6737;51.480;11.962;2022-07-11T04:31:03;3.47;;;1.30;;
13335;SDS011;6737;51.480;11.962;2022-07-11T04:33:29;4.03;;;1.17;;
13335;SDS011;6737;51.480;11.962;2022-07-11T04:35:55;5.60;;;1.60;;
13335;SDS011;6737;51.480;11.962;2022-07-11T04:38:21;5.03;;;1.47;;
13335;SDS011;6737;51.480;11.962;2022-07-11T04:40:47;3.33;;;1.73;;
13335;SDS011;6737;51.480;11.962;2022-07-11T04:43:14;6.97;;;1.30;;
13335;SDS011;6737;51.480;11.962;2022-07-11T04:45:40;3.23;;;1.50;;
13335;SDS011;6737;51.480;11.962;2022-07-11T04:48:05;3.80;;;1.30;;
13335;SDS011;6737;51.480;11.962;2022-07-11T04:50:31;3.70;;;1.50;;
13335;SDS011;6737;51.480;11.962;2022-07-11T04:52:57;4.60;;;1.50;;
13335;SDS011;6737;51.480;11.962;2022-07-11T04:55:23;6.27;;;1.40;;
13335;SDS011;6737;51.480;11.962;2022-07-11T04:57:50;4.87;;;1.37;;
13335;SDS011;6737;51.480;11.962;2022-07-11T05:00:16;4.73;;;1.47;;
13335;SDS011;6737;51.480;11.962;2022-07-11T05:02:42;5.07;;;1.40;;
13335;SDS011;6737;51.480;11.962;2022-07-11T05:05:08;3.93;;;1.43;;
13335;SDS011;6737;51.480;11.962;2022-07-11T05:07:34;5.03;;;1.97;;
13335;SDS011;6737;51.480;11.962;2022-07-11T05:10:01;2.47;;;1.30;;
13335;SDS011;6737;51.480;11.962;2022-07-11T05:12:27;3.07;;;1.50;;
13335;SDS011;6737;51.480;11.962;2022-07-11T05:14:53;5.10;;;1.50;;
13335;SDS011;6737;51.480;11.962;2022-07-11T05:17:20;4.10;;;1.40;;
13335;SDS011;6737;51.480;11.962;2022-07-11T05:19:46;3.93;;;1.50;;
13335;SDS011;6737;51.480;11.962;2022-07-11T05:22:12;5.63;;;1.40;;
13335;SDS011;6737;51.480;11.962;2022-07-11T05:24:38;3.03;;;1.30;;
13335;SDS011;6737;51.480;11.962;2022-07-11T05:27:04;6.00;;;1.50;;
13335;SDS011;6737;51.480;11.962;2022-07-11T05:29:29;2.67;;;1.40;;
13335;SDS011;6737;51.480;11.962;2022-07-11T05:31:55;4.20;;;1.50;;
13335;SDS011;6737;51.480;11.962;2022-07-11T05:34:21;2.00;;;1.30;;
13335;SDS011;6737;51.480;11.962;2022-07-11T05:36:47;3.10;;;1.70;;
13335;SDS011;6737;51.480;11.962;2022-07-11T05:39:13;5.20;;;1.30;;
13335;SDS011;6737;51.480;11.962;2022-07-11T05:41:40;6.17;;;1.50;;
13335;SDS011;6737;51.480;11.962;2022-07-11T05:44:06;2.50;;;1.30;;
13335;SDS011;6737;51.480;11.962;2022-07-11T05:46:32;2.57;;;1.43;;
13335;SDS011;6737;51.480;11.962;2022-07-11T05:48:57;3.30;;;1.40;;
13335;SDS011;6737;51.480;11.962;2022-07-11T05:51:23;3.80;;;1.50;;
13335;SDS011;6737;51.480;11.962;2022-07-11T05:53:49;3.33;;;1.30;;
13335;SDS011;6737;51.480;11.962;2022-07-11T05:56:15;5.03;;;1.20;;
13335;SDS011;6737;51.480;11.962;2022-07-11T05:58:40;3.17;;;1.10;;
13335;SDS011;6737;51.480;11.962;2022-07-11T06:01:06;2.80;;;1.20;;
13335;SDS011;6737;51.480;11.962;2022-07-11T06:03:33;3.87;;;1.37;;
13335;SDS011;6737;51.480;11.962;2022-07-11T06:06:00;4.70;;;1.00;;
13335;SDS011;6737;51.480;11.962;2022-07-11T06:08:29;2.53;;;1.00;;
13335;SDS011;6737;51.480;11.962;2022-07-11T06:11:08;1.47;;;1.00;;
13335;SDS011;6737;51.480;11.962;2022-07-11T06:13:35;1.93;;;1.07;;
13335;SDS011;6737;51.480;11.962;2022-07-11T06:16:04;2.77;;;1.10;;
13335;SDS011;6737;51.480;11.962;2022-07-11T06:18:32;5.50;;;1.03;;
13335;SDS011;6737;51.480;11.962;2022-07-11T06:20:58;3.90;;;0.87;;
13335;SDS011;6737;51.480;11.962;2022-07-11T06:23:24;3.10;;;1.10;;
13335;SDS011;6737;51.480;11.962;2022-07-11T06:25:50;2.27;;;0.87;;
13335;SDS011;6737;51.480;11.962;2022-07-11T06:28:15;1.57;;;0.80;;
13335;SDS011;6737;51.480;11.962;2022-07-11T06:30:41;1.90;;;0.87;;
13335;SDS011;6737;51.480;11.962;2022-07-11T06:33:07;3.28;;;1.02;;
13335;SDS011;6737;51.480;11.962;2022-07-11T06:35:33;3.00;;;1.20;;
13335;SDS011;6737;51.480;11.962;2022-07-11T06:37:59;2.80;;;0.98;;
13335;SDS011;6737;51.480;11.962;2022-07-11T06:40:26;4.40;;;1.00;;
13335;SDS011;6737;51.480;11.962;2022-07-11T06:42:52;1.92;;;0.93;;
13335;SDS011;6737;51.480;11.962;2022-07-11T06:45:18;1.67;;;0.90;;
13335;SDS011;6737;51.480;11.962;2022-07-11T06:47:44;1.80;;;1.00;;
13335;SDS011;6737;51.480;11.962;2022-07-11T06:50:09;2.30;;;0.90;;
13335;SDS011;6737;51.480;11.962;2022-07-11T06:52:36;6.30;;;1.00;;
13335;SDS011;6737;51.480;11.962;2022-07-11T06:55:02;3.70;;;0.90;;
13335;SDS011;6737;51.480;11.962;2022-07-11T06:57:28;2.80;;;0.90;;
13335;SDS011;6737;51.480;11.962;2022-07-11T06:59:54;3.23;;;1.10;;
13335;SDS011;6737;51.480;11.962;2022-07-11T07:02:20;1.77;;;1.07;;
13335;SDS011;6737;51.480;11.962;2022-07-11T07:04:48;1.60;;;0.90;;
13335;SDS011;6737;51.480;11.962;2022-07-11T07:07:14;3.20;;;0.90;;
13335;SDS011;6737;51.480;11.962;2022-07-11T07:09:40;1.77;;;0.82;;
13335;SDS011;6737;51.480;11.962;2022-07-11T07:12:06;1.85;;;0.90;;
13335;SDS011;6737;51.480;11.962;2022-07-11T07:14:32;2.58;;;0.85;;
13335;SDS011;6737;51.480;11.962;2022-07-11T07:16:58;3.33;;;1.10;;
13335;SDS011;6737;51.480;11.962;2022-07-11T07:19:24;3.55;;;0.80;;
13335;SDS011;6737;51.480;11.962;2022-07-11T07:21:50;2.85;;;0.90;;
13335;SDS011;6737;51.480;11.962;2022-07-11T07:24:15;3.85;;;1.13;;
13335;SDS011;6737;51.480;11.962;2022-07-11T07:26:41;2.63;;;0.80;;
13335;SDS011;6737;51.480;11.962;2022-07-11T07:29:07;2.28;;;0.93;;
13335;SDS011;6737;51.480;11.962;2022-07-11T07:31:33;1.75;;;0.80;;
13335;SDS011;6737;51.480;11.962;2022-07-11T07:33:59;1.50;;;0.77;;
13335;SDS011;6737;51.480;11.962;2022-07-11T07:36:24;2.50;;;0.90;;
13335;SDS011;6737;51.480;11.962;2022-07-11T07:38:50;2.08;;;0.80;;
13335;SDS011;6737;51.480;11.962;2022-07-11T07:41:16;1.08;;;0.73;;
13335;SDS011;6737;51.480;11.962;2022-07-11T07:43:42;3.47;;;1.00;;
13335;SDS011;6737;51.480;11.962;2022-07-11T07:46:08;1.58;;;0.90;;
13335;SDS011;6737;51.480;11.962;2022-07-11T07:48:35;1.80;;;0.90;;
13335;SDS011;6737;51.480;11.962;2022-07-11T07:51:02;3.08;;;0.90;;
13335;SDS011;6737;51.480;11.962;2022-07-11T07:53:27;1.90;;;0.80;;
13335;SDS011;6737;51.480;11.962;2022-07-11T07:55:53;2.08;;;0.88;;
13335;SDS011;6737;51.480;11.962;2022-07-11T07:58:19;2.38;;;0.75;;
13335;SDS011;6737;51.480;11.962;2022-07-11T08:00:45;2.75;;;1.10;;
13335;SDS011;6737;51.480;11.962;2022-07-11T08:03:29;1.15;;;0.80;;
13335;SDS011;6737;51.480;11.962;2022-07-11T08:05:56;2.67;;;0.80;;
13335;SDS011;6737;51.480;11.962;2022-07-11T08:08:22;2.05;;;0.88;;
13335;SDS011;6737;51.480;11.962;2022-07-11T08:10:48;2.88;;;0.98;;
13335;SDS011;6737;51.480;11.962;2022-07-11T08:13:15;4.70;;;1.00;;
13335;SDS011;6737;51.480;11.962;2022-07-11T08:15:41;1.10;;;0.80;;
13335;SDS011;6737;51.480;11.962;2022-07-11T08:18:07;4.28;;;0.80;;
13335;SDS011;6737;51.480;11.962;2022-07-11T08:20:33;1.92;;;0.80;;
13335;SDS011;6737;51.480;11.962;2022-07-11T08:22:59;1.88;;;0.80;;
13335;SDS011;6737;51.480;11.962;2022-07-11T08:25:27;3.15;;;0.85;;
13335;SDS011;6737;51.480;11.962;2022-07-11T08:27:53;4.20;;;0.98;;
13335;SDS011;6737;51.480;11.962;2022-07-11T08:30:19;1.23;;;0.73;;
13335;SDS011;6737;51.480;11.962;2022-07-11T08:32:44;2.80;;;0.75;;
13335;SDS011;6737;51.480;11.962;2022-07-11T08:35:10;3.75;;;0.90;;
13335;SDS011;6737;51.480;11.962;2022-07-11T08:37:36;1.00;;;0.70;;
13335;SDS011;6737;51.480;11.962;2022-07-11T08:40:03;3.15;;;0.88;;
13335;SDS011;6737;51.480;11.962;2022-07-11T08:42:29;1.55;;;0.80;;
13335;SDS011;6737;51.480;11.962;2022-07-11T08:44:57;2.20;;;0.90;;
13335;SDS011;6737;51.480;11.962;2022-07-11T08:47:23;3.97;;;0.90;;
13335;SDS011;6737;51.480;11.962;2022-07-11T08:49:51;2.08;;;0.80;;
13335;SDS011;6737;51.480;11.962;2022-07-11T08:52:17;4.00;;;0.80;;
13335;SDS011;6737;51.480;11.962;2022-07-11T08:54:45;2.38;;;0.90;;
13335;SDS011;6737;51.480;11.962;2022-07-11T08:57:12;5.40;;;0.98;;
13335;SDS011;6737;51.480;11.962;2022-07-11T08:59:38;2.97;;;0.93;;
13335;SDS011;6737;51.480;11.962;2022-07-11T09:02:09;3.92;;;0.95;;
13335;SDS011;6737;51.480;11.962;2022-07-11T09:04:36;2.15;;;1.00;;
13335;SDS011;6737;51.480;11.962;2022-07-11T09:07:03;3.40;;;0.90;;
13335;SDS011;6737;51.480;11.962;2022-07-11T09:09:29;0.80;;;0.80;;
13335;SDS011;6737;51.480;11.962;2022-07-11T09:11:56;2.47;;;1.02;;
13335;SDS011;6737;51.480;11.962;2022-07-11T09:14:30;1.92;;;0.80;;
13335;SDS011;6737;51.480;11.962;2022-07-11T09:19:28;2.35;;;0.90;;
13335;SDS011;6737;51.480;11.962;2022-07-11T09:22:14;1.23;;;0.82;;
13335;SDS011;6737;51.480;11.962;2022-07-11T09:24:59;1.25;;;0.88;;
13335;SDS011;6737;51.480;11.962;2022-07-11T09:27:45;2.78;;;0.90;;
13335;SDS011;6737;51.480;11.962;2022-07-11T09:32:59;3.92;;;1.05;;
13335;SDS011;6737;51.480;11.962;2022-07-11T09:35:27;4.18;;;1.02;;
13335;SDS011;6737;51.480;11.962;2022-07-11T09:37:55;1.60;;;1.00;;
13335;SDS011;6737;51.480;11.962;2022-07-11T09:40:21;2.65;;;0.90;;
13335;SDS011;6737;51.480;11.962;2022-07-11T09:42:52;1.58;;;0.80;;
13335;SDS011;6737;51.480;11.962;2022-07-11T09:45:19;0.70;;;0.70;;
13335;SDS011;6737;51.480;11.962;2022-07-11T09:47:49;1.10;;;0.80;;
13335;SDS011;6737;51.480;11.962;2022-07-11T09:50:23;1.85;;;0.93;;
13335;SDS011;6737;51.480;11.962;2022-07-11T09:55:44;1.52;;;0.90;;
13335;SDS011;6737;51.480;11.962;2022-07-11T09:58:14;2.45;;;1.00;;
13335;SDS011;6737;51.480;11.962;2022-07-11T10:00:47;3.28;;;0.93;;
13335;SDS011;6737;51.480;11.962;2022-07-11T10:03:13;1.40;;;0.90;;
13335;SDS011;6737;51.480;11.962;2022-07-11T10:05:38;2.63;;;0.82;;
13335;SDS011;6737;51.480;11.962;2022-07-11T10:08:05;2.10;;;0.80;;
13335;SDS011;6737;51.480;11.962;2022-07-11T10:10:31;1.02;;;0.80;;
13335;SDS011;6737;51.480;11.962;2022-07-11T10:12:58;2.80;;;0.90;;
13335;SDS011;6737;51.480;11.962;2022-07-11T10:25:45;1.92;;;0.75;;
13335;SDS011;6737;51.480;11.962;2022-07-11T10:28:22;2.10;;;0.77;;
13335;SDS011;6737;51.480;11.962;2022-07-11T10:30:57;1.88;;;0.80;;
13335;SDS011;6737;51.480;11.962;2022-07-11T10:33:25;0.75;;;0.75;;
13335;SDS011;6737;51.480;11.962;2022-07-11T10:35:53;2.60;;;0.90;;
13335;SDS011;6737;51.480;11.962;2022-07-11T10:38:20;1.90;;;0.80;;
13335;SDS011;6737;51.480;11.962;2022-07-11T10:40:50;1.45;;;0.70;;
13335;SDS011;6737;51.480;11.962;2022-07-11T10:45:54;1.48;;;0.80;;
13335;SDS011;6737;51.480;11.962;2022-07-11T10:48:24;1.77;;;0.90;;
13335;SDS011;6737;51.480;11.962;2022-07-11T11:02:58;1.17;;;0.90;;
13335;SDS011;6737;51.480;11.962;2022-07-11T11:05:51;1.73;;;0.70;;
13335;SDS011;6737;51.480;11.962;2022-07-11T11:16:52;2.30;;;0.98;;
13335;SDS011;6737;51.480;11.962;2022-07-11T11:22:17;1.33;;;0.73;;
13335;SDS011;6737;51.480;11.962;2022-07-11T11:24:48;2.33;;;0.80;;
13335;SDS011;6737;51.480;11.962;2022-07-11T11:27:19;2.38;;;0.80;;
13335;SDS011;6737;51.480;11.962;2022-07-11T11:29:47;1.92;;;0.70;;
13335;SDS011;6737;51.480;11.962;2022-07-11T11:32:21;1.35;;;0.73;;
13335;SDS011;6737;51.480;11.962;2022-07-11T11:34:54;3.03;;;0.90;;
13335;SDS011;6737;51.480;11.962;2022-07-11T11:37:20;1.63;;;0.90;;
13335;SDS011;6737;51.480;11.962;2022-07-11T11:39:47;0.80;;;0.80;;
13335;SDS011;6737;51.480;11.962;2022-07-11T11:42:16;0.68;;;0.63;;
13335;SDS011;6737;51.480;11.962;2022-07-11T11:44:55;1.25;;;0.90;;
13335;SDS011;6737;51.480;11.962;2022-07-11T11:47:24;0.85;;;0.80;;
13335;SDS011;6737;51.480;11.962;2022-07-11T11:49:53;2.13;;;0.80;;
13335;SDS011;6737;51.480;11.962;2022-07-11T11:52:19;9.10;;;1.00;;
13335;SDS011;6737;51.480;11.962;2022-07-11T11:54:52;2.70;;;0.95;;
13335;SDS011;6737;51.480;11.962;2022-07-11T11:57:20;1.17;;;0.70;;
13335;SDS011;6737;51.480;11.962;2022-07-11T11:59:47;1.23;;;0.73;;
13335;SDS011;6737;51.480;11.962;2022-07-11T12:02:20;1.52;;;0.80;;
13335;SDS011;6737;51.480;11.962;2022-07-11T12:04:47;1.83;;;0.70;;
13335;SDS011;6737;51.480;11.962;2022-07-11T12:07:13;1.58;;;0.70;;
13335;SDS011;6737;51.480;11.962;2022-07-11T12:09:49;0.80;;;0.60;;
13335;SDS011;6737;51.480;11.962;2022-07-11T12:12:18;1.75;;;0.77;;
13335;SDS011;6737;51.480;11.962;2022-07-11T12:15:05;2.25;;;0.70;;
13335;SDS011;6737;51.480;11.962;2022-07-11T12:17:33;6.68;;;0.80;;
13335;SDS011;6737;51.480;11.962;2022-07-11T12:20:00;10.10;;;1.00;;
13335;SDS011;6737;51.480;11.962;2022-07-11T12:22:26;0.88;;;0.70;;
13335;SDS011;6737;51.480;11.962;2022-07-11T12:24:53;1.88;;;0.82;;
13335;SDS011;6737;51.480;11.962;2022-07-11T12:27:24;1.08;;;0.77;;
13335;SDS011;6737;51.480;11.962;2022-07-11T12:29:51;5.93;;;1.02;;
13335;SDS011;6737;51.480;11.962;2022-07-11T12:32:18;3.47;;;0.90;;
13335;SDS011;6737;51.480;11.962;2022-07-11T12:34:47;2.50;;;0.80;;
13335;SDS011;6737;51.480;11.962;2022-07-11T12:37:19;1.65;;;0.80;;
13335;SDS011;6737;51.480;11.962;2022-07-11T12:44:58;2.72;;;0.88;;
13335;SDS011;6737;51.480;11.962;2022-07-11T12:47:45;1.25;;;0.77;;
13335;SDS011;6737;51.480;11.962;2022-07-11T12:50:13;2.67;;;0.65;;
13335;SDS011;6737;51.480;11.962;2022-07-11T12:52:41;1.83;;;0.80;;
13335;SDS011;6737;51.480;11.962;2022-07-11T12:55:25;2.08;;;0.70;;
13335;SDS011;6737;51.480;11.962;2022-07-11T12:58:11;1.15;;;0.60;;
13335;SDS011;6737;51.480;11.962;2022-07-11T13:03:32;1.25;;;0.70;;
13335;SDS011;6737;51.480;11.962;2022-07-11T13:05:59;1.45;;;0.70;;
13335;SDS011;6737;51.480;11.962;2022-07-11T13:11:08;2.75;;;0.80;;
13335;SDS011;6737;51.480;11.962;2022-07-11T13:13:39;1.95;;;0.82;;
13335;SDS011;6737;51.480;11.962;2022-07-11T13:16:06;1.35;;;0.80;;
13335;SDS011;6737;51.480;11.962;2022-07-11T13:18:33;3.75;;;0.88;;
13335;SDS011;6737;51.480;11.962;2022-07-11T13:20:59;2.28;;;0.80;;
13335;SDS011;6737;51.480;11.962;2022-07-11T13:23:26;1.60;;;0.80;;
13335;SDS011;6737;51.480;11.962;2022-07-11T13:25:53;0.70;;;0.70;;
13335;SDS011;6737;51.480;11.962;2022-07-11T13:28:20;2.90;;;0.88;;
13335;SDS011;6737;51.480;11.962;2022-07-11T13:30:51;3.80;;;0.80;;
13335;SDS011;6737;51.480;11.962;2022-07-11T13:33:18;1.25;;;0.80;;
13335;SDS011;6737;51.480;11.962;2022-07-11T13:35:45;1.33;;;0.70;;
13335;SDS011;6737;51.480;11.962;2022-07-11T13:38:12;0.80;;;0.70;;
13335;SDS011;6737;51.480;11.962;2022-07-11T13:40:38;3.03;;;0.75;;
13335;SDS011;6737;51.480;11.962;2022-07-11T13:43:04;2.58;;;0.70;;
13335;SDS011;6737;51.480;11.962;2022-07-11T13:45:30;4.88;;;0.90;;
13335;SDS011;6737;51.480;11.962;2022-07-11T13:47:56;1.02;;;0.80;;
13335;SDS011;6737;51.480;11.962;2022-07-11T13:50:23;1.10;;;0.88;;
13335;SDS011;6737;51.480;11.962;2022-07-11T13:52:49;3.67;;;0.80;;
13335;SDS011;6737;51.480;11.962;2022-07-11T13:55:17;3.35;;;0.82;;
13335;SDS011;6737;51.480;11.962;2022-07-11T13:57:45;1.40;;;0.73;;
13335;SDS011;6737;51.480;11.962;2022-07-11T14:00:17;1.15;;;0.70;;
13335;SDS011;6737;51.480;11.962;2022-07-11T14:02:44;1.85;;;0.73;;
13335;SDS011;6737;51.480;11.962;2022-07-11T14:05:10;1.00;;;0.80;;
13335;SDS011;6737;51.480;11.962;2022-07-11T14:07:36;5.30;;;1.08;;
13335;SDS011;6737;51.480;11.962;2022-07-11T14:10:02;2.35;;;0.82;;
13335;SDS011;6737;51.480;11.962;2022-07-11T14:12:29;6.30;;;1.05;;
13335;SDS011;6737;51.480;11.962;2022-07-11T14:14:56;0.93;;;0.80;;
13335;SDS011;6737;51.480;11.962;2022-07-11T14:17:22;1.02;;;0.70;;
13335;SDS011;6737;51.480;11.962;2022-07-11T14:19:50;1.38;;;0.70;;
13335;SDS011;6737;51.480;11.962;2022-07-11T14:22:17;1.27;;;0.73;;
13335;SDS011;6737;51.480;11.962;2022-07-11T14:24:43;2.20;;;0.80;;
13335;SDS011;6737;51.480;11.962;2022-07-11T14:27:09;3.40;;;1.10;;
13335;SDS011;6737;51.480;11.962;2022-07-11T14:29:35;4.18;;;1.00;;
13335;SDS011;6737;51.480;11.962;2022-07-11T14:32:01;5.18;;;1.10;;
13335;SDS011;6737;51.480;11.962;2022-07-11T14:34:27;3.22;;;1.00;;
13335;SDS011;6737;51.480;11.962;2022-07-11T14:36:55;1.65;;;1.13;;
13335;SDS011;6737;51.480;11.962;2022-07-11T14:39:21;7.20;;;0.98;;
13335;SDS011;6737;51.480;11.962;2022-07-11T14:41:49;2.45;;;0.90;;
13335;SDS011;6737;51.480;11.962;2022-07-11T14:44:15;1.33;;;0.70;;
13335;SDS011;6737;51.480;11.962;2022-07-11T14:46:41;1.13;;;0.80;;
13335;SDS011;6737;51.480;11.962;2022-07-11T14:49:07;0.80;;;0.70;;
13335;SDS011;6737;51.480;11.962;2022-07-11T14:51:36;1.42;;;0.80;;
13335;SDS011;6737;51.480;11.962;2022-07-11T14:54:02;2.05;;;0.90;;
13335;SDS011;6737;51.480;11.962;2022-07-11T14:56:28;1.33;;;0.75;;
13335;SDS011;6737;51.480;11.962;2022-07-11T14:58:54;3.35;;;0.70;;
13335;SDS011;6737;51.480;11.962;2022-07-11T15:01:19;2.08;;;0.80;;
13335;SDS011;6737;51.480;11.962;2022-07-11T15:03:45;1.52;;;0.70;;
13335;SDS011;6737;51.480;11.962;2022-07-11T15:06:13;1.05;;;0.73;;
13335;SDS011;6737;51.480;11.962;2022-07-11T15:08:40;2.00;;;0.80;;
13335;SDS011;6737;51.480;11.962;2022-07-11T15:11:25;2.15;;;0.95;;
13335;SDS011;6737;51.480;11.962;2022-07-11T15:14:10;0.90;;;0.77;;
13335;SDS011;6737;51.480;11.962;2022-07-11T15:16:37;2.15;;;0.70;;
13335;SDS011;6737;51.480;11.962;2022-07-11T15:19:04;1.45;;;0.80;;
13335;SDS011;6737;51.480;11.962;2022-07-11T15:21:32;1.33;;;0.80;;
13335;SDS011;6737;51.480;11.962;2022-07-11T15:23:58;3.15;;;0.77;;
13335;SDS011;6737;51.480;11.962;2022-07-11T15:26:26;1.48;;;0.90;;
13335;SDS011;6737;51.480;11.962;2022-07-11T15:28:52;1.92;;;0.80;;
13335;SDS011;6737;51.480;11.962;2022-07-11T15:31:18;1.63;;;0.80;;
13335;SDS011;6737;51.480;11.962;2022-07-11T15:33:45;0.70;;;0.70;;
13335;SDS011;6737;51.480;11.962;2022-07-11T15:36:13;1.15;;;0.70;;
13335;SDS011;6737;51.480;11.962;2022-07-11T15:38:40;1.00;;;0.80;;
13335;SDS011;6737;51.480;11.962;2022-07-11T15:41:09;0.70;;;0.70;;
13335;SDS011;6737;51.480;11.962;2022-07-11T15:43:36;3.30;;;0.80;;
13335;SDS011;6737;51.480;11.962;2022-07-11T15:46:01;1.70;;;0.80;;